Terminal Aerodrome Forecast
Issued by NWS

Home | Current Version | Previous Version | Text Only | Print | Product List | Glossary On
Versions: 1 2 3 4 5 6 7 8 9 10 11 12 13 14 15 16 17
847
FTUS46 KMTR 171133
TAFSJC
TAF
KSJC 171133Z 1712/1812 13003KT 5SM BR OVC010
     FM171800 15005KT 6SM BR BKN015
     FM172000 26006KT P6SM SCT020 BKN200
     FM180400 VRB03KT P6SM BKN100
     FM181000 18004KT P6SM -RA BKN050=

USA.gov is the U.S. government's official web portal to all federal, state and local government web resources and services.